sensor_id;sensor_type;location;lat;lon;timestamp;P1;durP1;ratioP1;P2;durP2;ratioP2
11743;SDS011;5929;51.906;7.674;2022-09-09T00:00:00;7.75;;;1.63;;
11743;SDS011;5929;51.906;7.674;2022-09-09T00:02:27;6.22;;;2.15;;
11743;SDS011;5929;51.906;7.674;2022-09-09T00:04:58;5.95;;;1.77;;
11743;SDS011;5929;51.906;7.674;2022-09-09T00:07:29;7.20;;;1.60;;
11743;SDS011;5929;51.906;7.674;2022-09-09T00:10:07;7.22;;;1.40;;
11743;SDS011;5929;51.906;7.674;2022-09-09T00:12:43;6.20;;;1.75;;
11743;SDS011;5929;51.906;7.674;2022-09-09T00:15:20;5.28;;;1.25;;
11743;SDS011;5929;51.906;7.674;2022-09-09T00:17:51;4.82;;;1.42;;
11743;SDS011;5929;51.906;7.674;2022-09-09T00:20:24;6.72;;;1.75;;
11743;SDS011;5929;51.906;7.674;2022-09-09T00:22:59;5.15;;;1.52;;
11743;SDS011;5929;51.906;7.674;2022-09-09T00:25:32;6.95;;;1.40;;
11743;SDS011;5929;51.906;7.674;2022-09-09T00:28:09;6.22;;;1.45;;
11743;SDS011;5929;51.906;7.674;2022-09-09T00:30:42;4.35;;;1.40;;
11743;SDS011;5929;51.906;7.674;2022-09-09T00:33:13;5.43;;;1.33;;
11743;SDS011;5929;51.906;7.674;2022-09-09T00:35:46;5.30;;;1.75;;
11743;SDS011;5929;51.906;7.674;2022-09-09T00:38:15;5.47;;;1.40;;
11743;SDS011;5929;51.906;7.674;2022-09-09T00:40:46;6.28;;;1.42;;
11743;SDS011;5929;51.906;7.674;2022-09-09T00:43:23;4.60;;;1.58;;
11743;SDS011;5929;51.906;7.674;2022-09-09T00:48:50;3.88;;;1.60;;
11743;SDS011;5929;51.906;7.674;2022-09-09T00:51:25;5.88;;;1.80;;
11743;SDS011;5929;51.906;7.674;2022-09-09T00:54:04;4.22;;;1.42;;
11743;SDS011;5929;51.906;7.674;2022-09-09T00:56:53;5.78;;;1.95;;
11743;SDS011;5929;51.906;7.674;2022-09-09T00:59:38;6.60;;;1.35;;
11743;SDS011;5929;51.906;7.674;2022-09-09T01:02:13;8.65;;;1.70;;
11743;SDS011;5929;51.906;7.674;2022-09-09T01:04:48;6.72;;;2.00;;
11743;SDS011;5929;51.906;7.674;2022-09-09T01:07:16;5.97;;;1.52;;
11743;SDS011;5929;51.906;7.674;2022-09-09T01:09:54;4.22;;;1.80;;
11743;SDS011;5929;51.906;7.674;2022-09-09T01:12:28;7.25;;;1.67;;
11743;SDS011;5929;51.906;7.674;2022-09-09T01:15:07;5.18;;;1.67;;
11743;SDS011;5929;51.906;7.674;2022-09-09T01:17:40;6.22;;;1.85;;
11743;SDS011;5929;51.906;7.674;2022-09-09T01:20:15;5.50;;;1.92;;
11743;SDS011;5929;51.906;7.674;2022-09-09T01:22:49;4.80;;;1.73;;
11743;SDS011;5929;51.906;7.674;2022-09-09T01:28:31;8.40;;;1.92;;
11743;SDS011;5929;51.906;7.674;2022-09-09T01:31:00;6.63;;;2.25;;
11743;SDS011;5929;51.906;7.674;2022-09-09T01:33:29;5.20;;;1.65;;
11743;SDS011;5929;51.906;7.674;2022-09-09T01:35:57;4.72;;;1.85;;
11743;SDS011;5929;51.906;7.674;2022-09-09T01:38:32;9.90;;;1.75;;
11743;SDS011;5929;51.906;7.674;2022-09-09T01:41:02;6.68;;;1.52;;
11743;SDS011;5929;51.906;7.674;2022-09-09T01:43:29;3.83;;;1.63;;
11743;SDS011;5929;51.906;7.674;2022-09-09T01:45:59;4.90;;;1.50;;
11743;SDS011;5929;51.906;7.674;2022-09-09T01:48:27;4.75;;;1.42;;
11743;SDS011;5929;51.906;7.674;2022-09-09T01:50:55;3.45;;;1.30;;
11743;SDS011;5929;51.906;7.674;2022-09-09T01:53:24;4.50;;;1.55;;
11743;SDS011;5929;51.906;7.674;2022-09-09T01:55:54;5.40;;;1.40;;
11743;SDS011;5929;51.906;7.674;2022-09-09T01:58:34;4.57;;;1.73;;
11743;SDS011;5929;51.906;7.674;2022-09-09T02:01:12;4.78;;;1.58;;
11743;SDS011;5929;51.906;7.674;2022-09-09T02:03:44;4.35;;;1.55;;
11743;SDS011;5929;51.906;7.674;2022-09-09T02:06:19;5.75;;;1.80;;
11743;SDS011;5929;51.906;7.674;2022-09-09T02:08:54;4.78;;;1.90;;
11743;SDS011;5929;51.906;7.674;2022-09-09T02:11:24;5.35;;;2.20;;
11743;SDS011;5929;51.906;7.674;2022-09-09T02:13:57;5.07;;;1.90;;
11743;SDS011;5929;51.906;7.674;2022-09-09T02:16:28;4.95;;;2.03;;
11743;SDS011;5929;51.906;7.674;2022-09-09T02:19:00;5.45;;;1.70;;
11743;SDS011;5929;51.906;7.674;2022-09-09T02:21:30;6.82;;;2.08;;
11743;SDS011;5929;51.906;7.674;2022-09-09T02:24:00;5.57;;;2.50;;
11743;SDS011;5929;51.906;7.674;2022-09-09T02:26:30;6.15;;;2.30;;
11743;SDS011;5929;51.906;7.674;2022-09-09T02:29:01;5.60;;;2.28;;
11743;SDS011;5929;51.906;7.674;2022-09-09T02:31:32;5.13;;;2.13;;
11743;SDS011;5929;51.906;7.674;2022-09-09T02:34:01;6.97;;;2.55;;
11743;SDS011;5929;51.906;7.674;2022-09-09T02:36:33;6.72;;;2.65;;
11743;SDS011;5929;51.906;7.674;2022-09-09T02:39:01;7.45;;;2.72;;
11743;SDS011;5929;51.906;7.674;2022-09-09T02:41:32;5.10;;;2.67;;
11743;SDS011;5929;51.906;7.674;2022-09-09T02:44:04;8.30;;;2.97;;
11743;SDS011;5929;51.906;7.674;2022-09-09T02:46:36;4.70;;;2.50;;
11743;SDS011;5929;51.906;7.674;2022-09-09T02:49:27;5.07;;;2.75;;
11743;SDS011;5929;51.906;7.674;2022-09-09T02:52:05;6.40;;;2.95;;
11743;SDS011;5929;51.906;7.674;2022-09-09T02:54:33;5.25;;;2.78;;
11743;SDS011;5929;51.906;7.674;2022-09-09T02:57:05;6.22;;;3.08;;
11743;SDS011;5929;51.906;7.674;2022-09-09T02:59:38;6.32;;;3.33;;
11743;SDS011;5929;51.906;7.674;2022-09-09T03:02:05;5.68;;;2.80;;
11743;SDS011;5929;51.906;7.674;2022-09-09T03:04:32;6.18;;;3.55;;
11743;SDS011;5929;51.906;7.674;2022-09-09T03:06:59;7.15;;;3.70;;
11743;SDS011;5929;51.906;7.674;2022-09-09T03:09:26;7.03;;;3.60;;
11743;SDS011;5929;51.906;7.674;2022-09-09T03:11:52;7.95;;;3.63;;
11743;SDS011;5929;51.906;7.674;2022-09-09T03:14:20;7.05;;;3.90;;
11743;SDS011;5929;51.906;7.674;2022-09-09T03:16:50;7.00;;;4.00;;
11743;SDS011;5929;51.906;7.674;2022-09-09T03:19:17;7.97;;;4.63;;
11743;SDS011;5929;51.906;7.674;2022-09-09T03:21:44;7.40;;;4.30;;
11743;SDS011;5929;51.906;7.674;2022-09-09T03:24:12;6.20;;;3.95;;
11743;SDS011;5929;51.906;7.674;2022-09-09T03:26:39;7.97;;;4.53;;
11743;SDS011;5929;51.906;7.674;2022-09-09T03:29:09;7.22;;;4.10;;
11743;SDS011;5929;51.906;7.674;2022-09-09T03:31:37;7.63;;;4.57;;
11743;SDS011;5929;51.906;7.674;2022-09-09T03:34:05;10.88;;;4.57;;
11743;SDS011;5929;51.906;7.674;2022-09-09T03:36:32;8.02;;;4.97;;
11743;SDS011;5929;51.906;7.674;2022-09-09T03:39:00;8.85;;;4.85;;
11743;SDS011;5929;51.906;7.674;2022-09-09T03:41:30;7.85;;;4.93;;
11743;SDS011;5929;51.906;7.674;2022-09-09T03:43:57;8.38;;;5.00;;
11743;SDS011;5929;51.906;7.674;2022-09-09T03:46:26;9.00;;;4.75;;
11743;SDS011;5929;51.906;7.674;2022-09-09T03:48:53;7.90;;;4.32;;
11743;SDS011;5929;51.906;7.674;2022-09-09T03:51:21;7.10;;;4.78;;
11743;SDS011;5929;51.906;7.674;2022-09-09T03:53:48;6.32;;;4.38;;
11743;SDS011;5929;51.906;7.674;2022-09-09T03:56:15;11.25;;;4.80;;
11743;SDS011;5929;51.906;7.674;2022-09-09T03:58:42;8.70;;;4.93;;
11743;SDS011;5929;51.906;7.674;2022-09-09T04:01:09;8.40;;;4.35;;
11743;SDS011;5929;51.906;7.674;2022-09-09T04:03:39;12.73;;;4.35;;
11743;SDS011;5929;51.906;7.674;2022-09-09T04:06:07;8.90;;;4.82;;
11743;SDS011;5929;51.906;7.674;2022-09-09T04:08:38;7.53;;;4.60;;
11743;SDS011;5929;51.906;7.674;2022-09-09T04:11:05;8.88;;;4.78;;
11743;SDS011;5929;51.906;7.674;2022-09-09T04:13:32;8.90;;;4.57;;
11743;SDS011;5929;51.906;7.674;2022-09-09T04:16:00;9.18;;;5.13;;
11743;SDS011;5929;51.906;7.674;2022-09-09T04:18:29;11.00;;;5.18;;
11743;SDS011;5929;51.906;7.674;2022-09-09T04:20:56;7.78;;;4.47;;
11743;SDS011;5929;51.906;7.674;2022-09-09T04:23:24;8.40;;;5.18;;
11743;SDS011;5929;51.906;7.674;2022-09-09T04:25:54;9.25;;;4.95;;
11743;SDS011;5929;51.906;7.674;2022-09-09T04:28:22;8.02;;;5.00;;
11743;SDS011;5929;51.906;7.674;2022-09-09T04:30:51;7.13;;;5.10;;
11743;SDS011;5929;51.906;7.674;2022-09-09T04:33:18;7.13;;;4.95;;
11743;SDS011;5929;51.906;7.674;2022-09-09T04:35:46;7.93;;;4.90;;
11743;SDS011;5929;51.906;7.674;2022-09-09T04:38:14;9.10;;;5.18;;
11743;SDS011;5929;51.906;7.674;2022-09-09T04:40:42;8.95;;;4.72;;
11743;SDS011;5929;51.906;7.674;2022-09-09T04:43:10;8.57;;;5.28;;
11743;SDS011;5929;51.906;7.674;2022-09-09T04:45:37;9.32;;;4.97;;
11743;SDS011;5929;51.906;7.674;2022-09-09T04:48:05;8.43;;;4.65;;
11743;SDS011;5929;51.906;7.674;2022-09-09T04:50:32;8.40;;;3.78;;
11743;SDS011;5929;51.906;7.674;2022-09-09T04:52:59;12.75;;;4.25;;
11743;SDS011;5929;51.906;7.674;2022-09-09T04:55:27;7.82;;;4.60;;
11743;SDS011;5929;51.906;7.674;2022-09-09T04:57:57;10.07;;;4.20;;
11743;SDS011;5929;51.906;7.674;2022-09-09T05:00:30;8.65;;;4.20;;
11743;SDS011;5929;51.906;7.674;2022-09-09T05:02:57;8.30;;;3.92;;
11743;SDS011;5929;51.906;7.674;2022-09-09T05:05:24;10.55;;;4.03;;
11743;SDS011;5929;51.906;7.674;2022-09-09T05:07:50;8.20;;;4.15;;
11743;SDS011;5929;51.906;7.674;2022-09-09T05:10:17;7.88;;;3.40;;
11743;SDS011;5929;51.906;7.674;2022-09-09T05:12:51;9.55;;;3.60;;
11743;SDS011;5929;51.906;7.674;2022-09-09T05:15:18;6.88;;;2.90;;
11743;SDS011;5929;51.906;7.674;2022-09-09T05:17:47;7.43;;;3.38;;
11743;SDS011;5929;51.906;7.674;2022-09-09T05:20:14;7.10;;;3.45;;
11743;SDS011;5929;51.906;7.674;2022-09-09T05:22:41;6.38;;;2.75;;
11743;SDS011;5929;51.906;7.674;2022-09-09T05:25:08;9.40;;;2.95;;
11743;SDS011;5929;51.906;7.674;2022-09-09T05:27:35;6.97;;;2.97;;
11743;SDS011;5929;51.906;7.674;2022-09-09T05:30:03;7.20;;;2.90;;
11743;SDS011;5929;51.906;7.674;2022-09-09T05:32:30;7.88;;;2.75;;
11743;SDS011;5929;51.906;7.674;2022-09-09T05:35:00;4.97;;;2.60;;
11743;SDS011;5929;51.906;7.674;2022-09-09T05:37:28;10.25;;;2.80;;
11743;SDS011;5929;51.906;7.674;2022-09-09T05:39:57;15.68;;;3.03;;
11743;SDS011;5929;51.906;7.674;2022-09-09T05:42:29;6.28;;;2.78;;
11743;SDS011;5929;51.906;7.674;2022-09-09T05:44:56;7.28;;;2.47;;
11743;SDS011;5929;51.906;7.674;2022-09-09T05:47:23;7.40;;;2.60;;
11743;SDS011;5929;51.906;7.674;2022-09-09T05:49:52;6.05;;;2.30;;
11743;SDS011;5929;51.906;7.674;2022-09-09T05:52:21;7.57;;;2.58;;
11743;SDS011;5929;51.906;7.674;2022-09-09T05:54:48;7.10;;;2.15;;
11743;SDS011;5929;51.906;7.674;2022-09-09T05:57:15;6.25;;;2.38;;
11743;SDS011;5929;51.906;7.674;2022-09-09T05:59:44;8.80;;;2.20;;
11743;SDS011;5929;51.906;7.674;2022-09-09T06:02:11;7.43;;;2.92;;
11743;SDS011;5929;51.906;7.674;2022-09-09T06:04:38;6.38;;;2.45;;
11743;SDS011;5929;51.906;7.674;2022-09-09T06:07:05;7.50;;;2.45;;
11743;SDS011;5929;51.906;7.674;2022-09-09T06:09:33;9.38;;;2.33;;
11743;SDS011;5929;51.906;7.674;2022-09-09T06:12:00;6.53;;;2.05;;
11743;SDS011;5929;51.906;7.674;2022-09-09T06:14:27;6.65;;;2.20;;
11743;SDS011;5929;51.906;7.674;2022-09-09T06:16:56;6.60;;;1.98;;
11743;SDS011;5929;51.906;7.674;2022-09-09T06:19:23;6.70;;;2.22;;
11743;SDS011;5929;51.906;7.674;2022-09-09T06:21:51;5.70;;;2.05;;
11743;SDS011;5929;51.906;7.674;2022-09-09T06:24:18;8.82;;;2.35;;
11743;SDS011;5929;51.906;7.674;2022-09-09T06:26:46;9.07;;;2.28;;
11743;SDS011;5929;51.906;7.674;2022-09-09T06:29:13;7.75;;;2.00;;
11743;SDS011;5929;51.906;7.674;2022-09-09T06:31:40;7.55;;;2.58;;
11743;SDS011;5929;51.906;7.674;2022-09-09T06:34:07;9.43;;;1.88;;
11743;SDS011;5929;51.906;7.674;2022-09-09T06:36:35;7.82;;;2.35;;
11743;SDS011;5929;51.906;7.674;2022-09-09T06:39:04;9.50;;;2.72;;
11743;SDS011;5929;51.906;7.674;2022-09-09T06:41:31;6.22;;;2.08;;
11743;SDS011;5929;51.906;7.674;2022-09-09T06:44:00;5.68;;;2.10;;
11743;SDS011;5929;51.906;7.674;2022-09-09T06:46:28;7.32;;;2.65;;
11743;SDS011;5929;51.906;7.674;2022-09-09T06:48:58;9.13;;;2.30;;
11743;SDS011;5929;51.906;7.674;2022-09-09T06:51:25;9.00;;;2.28;;
11743;SDS011;5929;51.906;7.674;2022-09-09T06:53:54;8.40;;;2.33;;
11743;SDS011;5929;51.906;7.674;2022-09-09T06:56:22;11.30;;;2.85;;
11743;SDS011;5929;51.906;7.674;2022-09-09T06:58:51;7.43;;;2.10;;
11743;SDS011;5929;51.906;7.674;2022-09-09T07:01:21;7.97;;;2.67;;
11743;SDS011;5929;51.906;7.674;2022-09-09T07:03:49;9.15;;;2.45;;
11743;SDS011;5929;51.906;7.674;2022-09-09T07:06:18;9.15;;;2.50;;
11743;SDS011;5929;51.906;7.674;2022-09-09T07:08:49;9.30;;;2.30;;
11743;SDS011;5929;51.906;7.674;2022-09-09T07:11:16;8.18;;;2.30;;
11743;SDS011;5929;51.906;7.674;2022-09-09T07:13:44;9.88;;;2.10;;
11743;SDS011;5929;51.906;7.674;2022-09-09T07:16:12;8.15;;;2.17;;
11743;SDS011;5929;51.906;7.674;2022-09-09T07:18:42;7.05;;;2.00;;
11743;SDS011;5929;51.906;7.674;2022-09-09T07:21:10;6.93;;;2.20;;
11743;SDS011;5929;51.906;7.674;2022-09-09T07:23:38;8.57;;;2.15;;
11743;SDS011;5929;51.906;7.674;2022-09-09T07:26:07;9.82;;;2.22;;
11743;SDS011;5929;51.906;7.674;2022-09-09T07:28:35;9.65;;;2.30;;
11743;SDS011;5929;51.906;7.674;2022-09-09T07:31:03;8.10;;;2.20;;
11743;SDS011;5929;51.906;7.674;2022-09-09T07:33:31;10.77;;;2.75;;
11743;SDS011;5929;51.906;7.674;2022-09-09T07:36:03;7.97;;;2.13;;
11743;SDS011;5929;51.906;7.674;2022-09-09T07:38:32;9.10;;;2.38;;
11743;SDS011;5929;51.906;7.674;2022-09-09T07:41:04;9.52;;;2.28;;
11743;SDS011;5929;51.906;7.674;2022-09-09T07:43:33;8.07;;;2.42;;
11743;SDS011;5929;51.906;7.674;2022-09-09T07:46:00;6.25;;;2.28;;
11743;SDS011;5929;51.906;7.674;2022-09-09T07:48:27;8.52;;;2.42;;
11743;SDS011;5929;51.906;7.674;2022-09-09T07:51:03;10.10;;;2.30;;
11743;SDS011;5929;51.906;7.674;2022-09-09T07:53:35;10.63;;;2.60;;
11743;SDS011;5929;51.906;7.674;2022-09-09T07:56:04;7.95;;;2.38;;
11743;SDS011;5929;51.906;7.674;2022-09-09T07:58:31;7.65;;;2.25;;
11743;SDS011;5929;51.906;7.674;2022-09-09T08:00:58;11.63;;;2.30;;
11743;SDS011;5929;51.906;7.674;2022-09-09T08:03:25;8.60;;;2.20;;
11743;SDS011;5929;51.906;7.674;2022-09-09T08:05:52;11.07;;;2.42;;
11743;SDS011;5929;51.906;7.674;2022-09-09T08:08:20;5.05;;;1.80;;
11743;SDS011;5929;51.906;7.674;2022-09-09T08:10:47;7.05;;;1.75;;
11743;SDS011;5929;51.906;7.674;2022-09-09T08:13:14;6.20;;;1.98;;
11743;SDS011;5929;51.906;7.674;2022-09-09T08:15:42;5.20;;;1.67;;
11743;SDS011;5929;51.906;7.674;2022-09-09T08:18:09;9.18;;;2.40;;
11743;SDS011;5929;51.906;7.674;2022-09-09T08:20:36;8.20;;;2.10;;
11743;SDS011;5929;51.906;7.674;2022-09-09T08:23:03;8.93;;;2.03;;
11743;SDS011;5929;51.906;7.674;2022-09-09T08:25:32;5.70;;;1.92;;
11743;SDS011;5929;51.906;7.674;2022-09-09T08:27:59;7.40;;;1.63;;
11743;SDS011;5929;51.906;7.674;2022-09-09T08:30:26;6.18;;;1.73;;
11743;SDS011;5929;51.906;7.674;2022-09-09T08:32:53;10.10;;;1.65;;
11743;SDS011;5929;51.906;7.674;2022-09-09T08:35:20;8.50;;;2.22;;
11743;SDS011;5929;51.906;7.674;2022-09-09T08:37:47;7.22;;;1.70;;
11743;SDS011;5929;51.906;7.674;2022-09-09T08:40:17;7.72;;;2.00;;
11743;SDS011;5929;51.906;7.674;2022-09-09T08:42:54;6.03;;;2.17;;
11743;SDS011;5929;51.906;7.674;2022-09-09T08:45:31;8.90;;;2.83;;
11743;SDS011;5929;51.906;7.674;2022-09-09T08:48:05;7.68;;;2.35;;
11743;SDS011;5929;51.906;7.674;2022-09-09T08:50:40;10.10;;;3.45;;
11743;SDS011;5929;51.906;7.674;2022-09-09T08:53:10;8.95;;;3.28;;
11743;SDS011;5929;51.906;7.674;2022-09-09T08:55:43;8.60;;;3.00;;
11743;SDS011;5929;51.906;7.674;2022-09-09T08:58:16;10.05;;;2.75;;
11743;SDS011;5929;51.906;7.674;2022-09-09T09:00:52;11.25;;;2.63;;
11743;SDS011;5929;51.906;7.674;2022-09-09T09:03:46;8.27;;;2.20;;
11743;SDS011;5929;51.906;7.674;2022-09-09T09:06:21;8.73;;;2.33;;
11743;SDS011;5929;51.906;7.674;2022-09-09T09:08:59;10.32;;;2.38;;
11743;SDS011;5929;51.906;7.674;2022-09-09T09:11:34;8.50;;;1.77;;
11743;SDS011;5929;51.906;7.674;2022-09-09T09:14:07;7.53;;;1.92;;
11743;SDS011;5929;51.906;7.674;2022-09-09T09:16:38;6.20;;;1.80;;
11743;SDS011;5929;51.906;7.674;2022-09-09T09:19:14;8.32;;;1.60;;
11743;SDS011;5929;51.906;7.674;2022-09-09T09:21:42;5.43;;;1.40;;
11743;SDS011;5929;51.906;7.674;2022-09-09T09:24:13;6.63;;;1.63;;
11743;SDS011;5929;51.906;7.674;2022-09-09T09:26:44;6.53;;;1.83;;
11743;SDS011;5929;51.906;7.674;2022-09-09T09:29:13;9.68;;;1.70;;
11743;SDS011;5929;51.906;7.674;2022-09-09T09:31:42;10.77;;;2.00;;
11743;SDS011;5929;51.906;7.674;2022-09-09T09:34:13;7.00;;;1.50;;
11743;SDS011;5929;51.906;7.674;2022-09-09T09:36:43;7.30;;;1.75;;
11743;SDS011;5929;51.906;7.674;2022-09-09T09:39:22;6.88;;;1.60;;
11743;SDS011;5929;51.906;7.674;2022-09-09T09:41:49;10.05;;;1.63;;
11743;SDS011;5929;51.906;7.674;2022-09-09T09:44:23;7.22;;;1.67;;
11743;SDS011;5929;51.906;7.674;2022-09-09T09:46:52;5.80;;;1.30;;
11743;SDS011;5929;51.906;7.674;2022-09-09T09:49:30;8.25;;;1.55;;
11743;SDS011;5929;51.906;7.674;2022-09-09T09:52:06;7.95;;;1.75;;
11743;SDS011;5929;51.906;7.674;2022-09-09T09:54:41;9.45;;;1.75;;
11743;SDS011;5929;51.906;7.674;2022-09-09T09:57:09;9.38;;;1.55;;
11743;SDS011;5929;51.906;7.674;2022-09-09T09:59:40;7.53;;;1.65;;
11743;SDS011;5929;51.906;7.674;2022-09-09T10:02:18;10.27;;;1.65;;
11743;SDS011;5929;51.906;7.674;2022-09-09T10:04:59;7.68;;;1.88;;
11743;SDS011;5929;51.906;7.674;2022-09-09T10:07:27;6.70;;;1.85;;
11743;SDS011;5929;51.906;7.674;2022-09-09T10:09:55;7.38;;;2.08;;
11743;SDS011;5929;51.906;7.674;2022-09-09T10:12:26;6.13;;;1.98;;
11743;SDS011;5929;51.906;7.674;2022-09-09T10:15:05;8.18;;;1.73;;
11743;SDS011;5929;51.906;7.674;2022-09-09T10:17:44;5.93;;;1.65;;
11743;SDS011;5929;51.906;7.674;2022-09-09T10:20:27;5.25;;;1.80;;
11743;SDS011;5929;51.906;7.674;2022-09-09T10:23:03;7.07;;;1.80;;
11743;SDS011;5929;51.906;7.674;2022-09-09T10:25:40;6.18;;;1.92;;
11743;SDS011;5929;51.906;7.674;2022-09-09T10:28:33;6.70;;;1.80;;
11743;SDS011;5929;51.906;7.674;2022-09-09T10:31:16;7.03;;;2.08;;
11743;SDS011;5929;51.906;7.674;2022-09-09T10:33:49;10.57;;;2.58;;
11743;SDS011;5929;51.906;7.674;2022-09-09T10:36:19;9.23;;;2.35;;
11743;SDS011;5929;51.906;7.674;2022-09-09T10:38:48;7.03;;;2.13;;
11743;SDS011;5929;51.906;7.674;2022-09-09T10:41:26;7.55;;;2.40;;
11743;SDS011;5929;51.906;7.674;2022-09-09T10:47:02;9.23;;;2.63;;
11743;SDS011;5929;51.906;7.674;2022-09-09T10:49:56;10.50;;;2.63;;
11743;SDS011;5929;51.906;7.674;2022-09-09T10:52:31;7.38;;;2.78;;
11743;SDS011;5929;51.906;7.674;2022-09-09T10:55:10;7.50;;;2.60;;
11743;SDS011;5929;51.906;7.674;2022-09-09T10:57:41;6.90;;;2.20;;
11743;SDS011;5929;51.906;7.674;2022-09-09T11:00:14;6.38;;;2.20;;
11743;SDS011;5929;51.906;7.674;2022-09-09T11:02:45;5.75;;;1.83;;
11743;SDS011;5929;51.906;7.674;2022-09-09T11:05:19;7.15;;;1.95;;
11743;SDS011;5929;51.906;7.674;2022-09-09T11:07:48;8.18;;;2.50;;
11743;SDS011;5929;51.906;7.674;2022-09-09T11:10:21;7.93;;;2.25;;
11743;SDS011;5929;51.906;7.674;2022-09-09T11:12:53;8.15;;;2.90;;
11743;SDS011;5929;51.906;7.674;2022-09-09T11:15:25;7.00;;;2.88;;
11743;SDS011;5929;51.906;7.674;2022-09-09T11:18:00;7.50;;;3.00;;
11743;SDS011;5929;51.906;7.674;2022-09-09T11:20:31;8.52;;;3.28;;
11743;SDS011;5929;51.906;7.674;2022-09-09T11:22:58;8.10;;;2.47;;
11743;SDS011;5929;51.906;7.674;2022-09-09T11:25:30;8.07;;;2.67;;
11743;SDS011;5929;51.906;7.674;2022-09-09T11:28:05;8.50;;;2.10;;
11743;SDS011;5929;51.906;7.674;2022-09-09T11:30:49;7.43;;;1.88;;
11743;SDS011;5929;51.906;7.674;2022-09-09T11:33:37;6.65;;;2.22;;
11743;SDS011;5929;51.906;7.674;2022-09-09T11:36:27;5.82;;;1.60;;
11743;SDS011;5929;51.906;7.674;2022-09-09T11:39:11;6.72;;;1.85;;
11743;SDS011;5929;51.906;7.674;2022-09-09T11:42:05;4.75;;;1.50;;
11743;SDS011;5929;51.906;7.674;2022-09-09T11:44:35;5.45;;;1.33;;
11743;SDS011;5929;51.906;7.674;2022-09-09T11:47:02;7.75;;;1.88;;
11743;SDS011;5929;51.906;7.674;2022-09-09T11:49:41;8.27;;;1.92;;
11743;SDS011;5929;51.906;7.674;2022-09-09T11:52:11;6.55;;;1.80;;
11743;SDS011;5929;51.906;7.674;2022-09-09T11:54:44;8.13;;;1.90;;
11743;SDS011;5929;51.906;7.674;2022-09-09T11:57:17;7.03;;;1.88;;
11743;SDS011;5929;51.906;7.674;2022-09-09T11:59:51;5.80;;;1.52;;
11743;SDS011;5929;51.906;7.674;2022-09-09T12:02:21;6.60;;;1.58;;
11743;SDS011;5929;51.906;7.674;2022-09-09T12:04:55;6.38;;;1.30;;
11743;SDS011;5929;51.906;7.674;2022-09-09T12:07:33;7.28;;;1.40;;
11743;SDS011;5929;51.906;7.674;2022-09-09T12:10:05;5.80;;;1.55;;
11743;SDS011;5929;51.906;7.674;2022-09-09T12:12:48;5.22;;;1.30;;
11743;SDS011;5929;51.906;7.674;2022-09-09T12:15:19;5.18;;;1.15;;
11743;SDS011;5929;51.906;7.674;2022-09-09T12:17:50;4.45;;;1.33;;
11743;SDS011;5929;51.906;7.674;2022-09-09T12:20:20;4.68;;;1.33;;
11743;SDS011;5929;51.906;7.674;2022-09-09T12:22:58;3.03;;;0.90;;
11743;SDS011;5929;51.906;7.674;2022-09-09T12:25:47;4.63;;;0.90;;
11743;SDS011;5929;51.906;7.674;2022-09-09T12:28:25;8.00;;;1.08;;
11743;SDS011;5929;51.906;7.674;2022-09-09T12:31:04;4.18;;;1.10;;
11743;SDS011;5929;51.906;7.674;2022-09-09T12:33:39;6.70;;;1.23;;
11743;SDS011;5929;51.906;7.674;2022-09-09T12:36:11;3.03;;;0.90;;
11743;SDS011;5929;51.906;7.674;2022-09-09T12:38:40;6.35;;;1.27;;
11743;SDS011;5929;51.906;7.674;2022-09-09T12:41:16;5.40;;;1.20;;
11743;SDS011;5929;51.906;7.674;2022-09-09T12:43:48;5.20;;;1.33;;
11743;SDS011;5929;51.906;7.674;2022-09-09T12:46:20;4.00;;;1.02;;
11743;SDS011;5929;51.906;7.674;2022-09-09T12:48:54;4.72;;;1.20;;
11743;SDS011;5929;51.906;7.674;2022-09-09T12:51:23;5.40;;;1.20;;
11743;SDS011;5929;51.906;7.674;2022-09-09T12:53:54;4.63;;;1.45;;
11743;SDS011;5929;51.906;7.674;2022-09-09T12:56:22;5.20;;;1.40;;
11743;SDS011;5929;51.906;7.674;2022-09-09T12:58:52;4.30;;;1.25;;
11743;SDS011;5929;51.906;7.674;2022-09-09T13:01:22;4.70;;;1.27;;
11743;SDS011;5929;51.906;7.674;2022-09-09T13:03:51;5.93;;;1.20;;
11743;SDS011;5929;51.906;7.674;2022-09-09T13:06:19;6.43;;;1.30;;
11743;SDS011;5929;51.906;7.674;2022-09-09T13:08:50;6.32;;;1.17;;
11743;SDS011;5929;51.906;7.674;2022-09-09T13:11:19;4.13;;;1.30;;
11743;SDS011;5929;51.906;7.674;2022-09-09T13:13:50;5.40;;;1.13;;
11743;SDS011;5929;51.906;7.674;2022-09-09T13:16:19;4.32;;;1.58;;
11743;SDS011;5929;51.906;7.674;2022-09-09T13:18:49;4.95;;;1.38;;
11743;SDS011;5929;51.906;7.674;2022-09-09T13:21:16;4.57;;;1.23;;
11743;SDS011;5929;51.906;7.674;2022-09-09T13:23:48;5.45;;;1.30;;
11743;SDS011;5929;51.906;7.674;2022-09-09T13:26:21;9.02;;;1.80;;
11743;SDS011;5929;51.906;7.674;2022-09-09T13:28:49;5.97;;;1.67;;
11743;SDS011;5929;51.906;7.674;2022-09-09T13:31:21;5.63;;;1.90;;
11743;SDS011;5929;51.906;7.674;2022-09-09T13:33:52;9.38;;;2.60;;
11743;SDS011;5929;51.906;7.674;2022-09-09T13:36:27;7.57;;;2.22;;
11743;SDS011;5929;51.906;7.674;2022-09-09T13:38:58;6.65;;;2.30;;
11743;SDS011;5929;51.906;7.674;2022-09-09T13:41:28;8.55;;;2.17;;
11743;SDS011;5929;51.906;7.674;2022-09-09T13:43:57;8.45;;;1.90;;
11743;SDS011;5929;51.906;7.674;2022-09-09T13:46:34;7.13;;;1.70;;
11743;SDS011;5929;51.906;7.674;2022-09-09T13:49:17;6.35;;;1.55;;
11743;SDS011;5929;51.906;7.674;2022-09-09T13:51:47;7.78;;;1.50;;
11743;SDS011;5929;51.906;7.674;2022-09-09T13:54:17;8.02;;;1.60;;
11743;SDS011;5929;51.906;7.674;2022-09-09T13:56:48;4.45;;;1.10;;
11743;SDS011;5929;51.906;7.674;2022-09-09T13:59:16;4.43;;;1.42;;
11743;SDS011;5929;51.906;7.674;2022-09-09T14:01:44;4.10;;;1.00;;
11743;SDS011;5929;51.906;7.674;2022-09-09T14:04:17;4.40;;;1.20;;
11743;SDS011;5929;51.906;7.674;2022-09-09T14:06:52;4.50;;;1.17;;
11743;SDS011;5929;51.906;7.674;2022-09-09T14:09:23;5.88;;;1.20;;
11743;SDS011;5929;51.906;7.674;2022-09-09T14:11:55;7.07;;;1.27;;
11743;SDS011;5929;51.906;7.674;2022-09-09T14:14:21;5.43;;;1.10;;
11743;SDS011;5929;51.906;7.674;2022-09-09T14:16:48;4.90;;;1.10;;
11743;SDS011;5929;51.906;7.674;2022-09-09T14:19:15;2.47;;;1.00;;
11743;SDS011;5929;51.906;7.674;2022-09-09T14:21:42;5.72;;;1.25;;
11743;SDS011;5929;51.906;7.674;2022-09-09T14:24:09;6.28;;;1.15;;
11743;SDS011;5929;51.906;7.674;2022-09-09T14:26:38;4.47;;;1.15;;
11743;SDS011;5929;51.906;7.674;2022-09-09T14:29:05;3.47;;;0.90;;
11743;SDS011;5929;51.906;7.674;2022-09-09T14:31:32;3.58;;;0.95;;
11743;SDS011;5929;51.906;7.674;2022-09-09T14:33:59;3.15;;;0.60;;
11743;SDS011;5929;51.906;7.674;2022-09-09T14:36:26;4.03;;;0.77;;
11743;SDS011;5929;51.906;7.674;2022-09-09T14:38:53;2.40;;;0.60;;
11743;SDS011;5929;51.906;7.674;2022-09-09T14:41:19;3.85;;;0.80;;
11743;SDS011;5929;51.906;7.674;2022-09-09T14:43:49;4.40;;;1.05;;
11743;SDS011;5929;51.906;7.674;2022-09-09T14:46:19;3.92;;;1.05;;
11743;SDS011;5929;51.906;7.674;2022-09-09T14:48:47;6.00;;;1.23;;
11743;SDS011;5929;51.906;7.674;2022-09-09T14:51:15;6.05;;;1.98;;
11743;SDS011;5929;51.906;7.674;2022-09-09T14:53:44;7.55;;;2.47;;
11743;SDS011;5929;51.906;7.674;2022-09-09T14:56:13;8.52;;;2.63;;
11743;SDS011;5929;51.906;7.674;2022-09-09T14:58:41;9.30;;;3.22;;
11743;SDS011;5929;51.906;7.674;2022-09-09T15:01:10;7.85;;;3.17;;
11743;SDS011;5929;51.906;7.674;2022-09-09T15:03:41;8.10;;;3.58;;
11743;SDS011;5929;51.906;7.674;2022-09-09T15:06:14;7.55;;;4.07;;
11743;SDS011;5929;51.906;7.674;2022-09-09T15:08:42;9.18;;;4.43;;
11743;SDS011;5929;51.906;7.674;2022-09-09T15:11:10;9.40;;;4.63;;
11743;SDS011;5929;51.906;7.674;2022-09-09T15:13:38;8.55;;;4.80;;
11743;SDS011;5929;51.906;7.674;2022-09-09T15:16:08;10.15;;;4.65;;
11743;SDS011;5929;51.906;7.674;2022-09-09T15:18:39;12.50;;;5.10;;
11743;SDS011;5929;51.906;7.674;2022-09-09T15:21:08;9.18;;;4.43;;
11743;SDS011;5929;51.906;7.674;2022-09-09T15:23:35;7.80;;;3.92;;
11743;SDS011;5929;51.906;7.674;2022-09-09T15:26:02;8.13;;;4.22;;
11743;SDS011;5929;51.906;7.674;2022-09-09T15:28:31;7.78;;;3.92;;
11743;SDS011;5929;51.906;7.674;2022-09-09T15:31:04;7.43;;;3.75;;